Terminal Aerodrome Forecast
Issued by NWS Pittsburgh, PA

Current Version | Previous Version | Text Only | Print | Product List | Glossary Off
Versions: 1 2 3 4 5 6 7 8 9 10 11 12 13 14 15 16 17 18 19 20 21 22 23 24 25 26 27 28 29 30 31 32 33 34 35 36 37 38 39 40

000
FTUS41 KPBZ 271100
TAFPIT
TAF
KPIT 271120Z 2712/2818 25003KT 2SM BR SCT004 SCT019 OVC045
      TEMPO 2712/2715 4SM BR OVC025
     FM271500 28005KT 4SM -SHSN BR OVC020
     FM280000 30010KT P6SM VCSH OVC020=

USA.gov is the U.S. government's official web portal to all federal, state and local government web resources and services.